Time;durP1;ratioP1;P1;durP2;ratioP2;P2;SDS_P1;SDS_P2;PMS_P1;PMS_P2;Temp;Humidity;BMP_temperature;BMP_pressure;BME280_temperature;BME280_humidity;BME280_pressure;Samples;Min_cycle;Max_cycle;Signal;HPM_P1;HPM_P2
2023/11/19 00:07:02;;;;;;;61.40;44.10;;;;;;;-1.41;100.00;100016.51;436058;1251;140364;-64
2023/11/19 00:17:08;;;;;;;51.00;37.20;;;;;;;-1.42;100.00;100008.10;436890;1253;140015;-63
2023/11/19 00:27:15;;;;;;;49.00;34.60;;;;;;;-1.44;100.00;100005.54;435924;1250;140669;-64
2023/11/19 00:37:21;;;;;;;53.90;40.40;;;;;;;-1.46;100.00;100001.61;436155;1254;140958;-63
2023/11/19 00:47:26;;;;;;;;;;;;;;;-1.44;100.00;99981.17;435904;1250;140208;-63
2023/11/19 00:57:33;;;;;;;41.20;31.60;;;;;;;-1.40;100.00;99971.85;435819;1254;127385;-63
2023/11/19 01:07:39;;;;;;;41.90;34.90;;;;;;;-1.38;100.00;99957.77;436187;1254;139507;-63
2023/11/19 01:17:45;;;;;;;44.90;32.00;;;;;;;-1.35;100.00;99936.77;435747;1251;141697;-63
2023/11/19 01:27:57;;;;;;;45.80;31.90;;;;;;;-1.29;100.00;99947.54;435804;1253;139582;-63
2023/11/19 01:38:03;;;;;;;42.00;34.20;;;;;;;-1.24;100.00;99943.54;436439;1253;139537;-64
2023/11/19 01:48:11;;;;;;;43.10;31.40;;;;;;;-1.22;100.00;99909.50;436391;1250;141790;-63
2023/11/19 01:58:18;;;;;;;40.20;29.50;;;;;;;-1.21;100.00;99872.38;435949;1251;139932;-63
2023/11/19 02:08:25;;;;;;;32.70;23.70;;;;;;;-1.20;100.00;99872.39;436140;1251;139549;-62
2023/11/19 02:18:32;;;;;;;25.10;18.80;;;;;;;-1.18;100.00;99852.08;436307;1253;139744;-62
2023/11/19 02:28:39;;;;;;;22.90;18.60;;;;;;;-1.17;100.00;99835.58;436758;1253;139784;-63
2023/11/19 02:38:46;;;;;;;24.90;18.10;;;;;;;-1.12;100.00;99816.44;435735;1253;140324;-63
2023/11/19 02:48:52;;;;;;;20.90;17.00;;;;;;;-1.08;100.00;99787.19;435642;1253;140436;-64
2023/11/19 02:58:58;;;;;;;19.80;14.70;;;;;;;-1.06;100.00;99763.96;435899;1250;139985;-62
2023/11/19 03:09:10;;;;;;;16.00;13.10;;;;;;;-1.04;100.00;99736.45;435804;1255;139235;-63
2023/11/19 03:19:16;;;;;;;22.40;16.50;;;;;;;-1.09;100.00;99719.33;435935;1250;140739;-63
2023/11/19 03:29:31;;;;;;;24.20;17.90;;;;;;;-1.09;100.00;99729.48;435559;1250;140098;-62
2023/11/19 03:39:37;;;;;;;24.10;18.90;;;;;;;-1.09;100.00;99730.33;435859;1253;140951;-63
2023/11/19 03:49:43;;;;;;;22.80;19.20;;;;;;;-1.08;100.00;99713.66;435595;1251;139533;-63
2023/11/19 03:59:50;;;;;;;25.20;19.50;;;;;;;-1.08;100.00;99704.55;435400;1253;139648;-63
2023/11/19 04:09:56;;;;;;;26.50;19.90;;;;;;;-1.09;100.00;99681.02;435755;1251;139345;-63
2023/11/19 04:20:03;;;;;;;24.50;18.80;;;;;;;-1.09;100.00;99658.67;435589;1250;139651;-63
2023/11/19 04:30:11;;;;;;;28.60;21.70;;;;;;;-1.09;100.00;99629.30;435753;1253;139409;-62
2023/11/19 04:40:19;;;;;;;27.20;21.00;;;;;;;-1.11;100.00;99615.40;436026;1250;141027;-62
2023/11/19 04:50:27;;;;;;;28.40;21.30;;;;;;;-1.13;100.00;99593.61;435766;1254;139132;-64
2023/11/19 05:00:33;;;;;;;29.50;21.20;;;;;;;-1.13;100.00;99574.23;435497;1254;139518;-62
2023/11/19 05:10:38;;;;;;;;;;;;;;;-1.13;100.00;99556.17;435292;1254;139515;-63
2023/11/19 05:20:44;;;;;;;25.40;19.10;;;;;;;-1.13;100.00;99537.61;437048;1254;125506;-63
2023/11/19 05:30:50;;;;;;;23.60;18.30;;;;;;;-1.13;100.00;99523.69;435808;1253;141007;-63
2023/11/19 05:40:55;;;;;;;;;;;;;;;-1.11;100.00;99526.24;435866;1250;139447;-63
2023/11/19 05:51:01;;;;;;;24.90;18.20;;;;;;;-1.09;100.00;99521.74;435981;1255;126424;-62
2023/11/19 06:01:08;;;;;;;22.00;17.60;;;;;;;-1.07;100.00;99520.16;435860;1254;139399;-64
2023/11/19 06:11:18;;;;;;;24.90;19.40;;;;;;;-1.06;100.00;99503.46;436722;1256;139412;-62
2023/11/19 06:21:24;;;;;;;22.50;17.90;;;;;;;-1.03;100.00;99495.02;436048;1251;140141;-62
2023/11/19 06:31:31;;;;;;;22.30;17.70;;;;;;;-1.01;100.00;99485.86;435780;1250;139739;-62
2023/11/19 06:41:37;;;;;;;24.90;17.90;;;;;;;-0.94;100.00;99459.80;435875;1253;139406;-63
2023/11/19 06:51:46;;;;;;;21.80;17.70;;;;;;;-0.90;100.00;99449.73;437345;1253;140418;-63
2023/11/19 07:01:52;;;;;;;25.20;18.80;;;;;;;-0.86;100.00;99438.84;435662;1251;140080;-63
2023/11/19 07:11:59;;;;;;;19.90;13.90;;;;;;;-0.81;100.00;99437.54;435646;1254;140034;-63
2023/11/19 07:22:06;;;;;;;26.00;17.00;;;;;;;-0.72;100.00;99417.59;435656;1256;140133;-64
2023/11/19 07:32:13;;;;;;;24.50;19.00;;;;;;;-0.63;100.00;99406.73;436874;1254;139788;-64
2023/11/19 07:42:20;;;;;;;24.30;17.70;;;;;;;-0.50;100.00;99392.55;435723;1251;139687;-63
2023/11/19 07:52:26;;;;;;;24.60;17.10;;;;;;;-0.27;100.00;99370.73;435658;1253;139739;-64
2023/11/19 08:02:32;;;;;;;21.60;17.00;;;;;;;0.16;100.00;99358.00;435720;1253;139447;-64
2023/11/19 08:12:37;;;;;;;;;;;;;;;0.48;100.00;99347.01;436486;1253;140237;-64
2023/11/19 08:22:43;;;;;;;24.10;17.80;;;;;;;0.60;100.00;99315.69;436371;1253;126236;-62
2023/11/19 08:32:49;;;;;;;27.90;18.40;;;;;;;0.77;100.00;99291.95;435993;1253;139766;-64
2023/11/19 08:42:56;;;;;;;22.10;16.20;;;;;;;0.94;100.00;99273.20;436057;1254;140106;-63
2023/11/19 08:53:02;;;;;;;23.60;18.50;;;;;;;0.96;100.00;99264.36;435841;1254;139212;-63
2023/11/19 09:03:09;;;;;;;25.30;17.70;;;;;;;0.91;100.00;99246.77;435501;1254;139267;-64
2023/11/19 09:13:16;;;;;;;23.70;17.30;;;;;;;0.85;100.00;99228.14;436696;1251;139972;-63
2023/11/19 09:23:22;;;;;;;26.90;17.90;;;;;;;0.76;100.00;99207.73;435558;1254;139933;-62
2023/11/19 09:33:28;;;;;;;23.70;17.50;;;;;;;0.65;100.00;99184.80;435516;1251;139539;-63
2023/11/19 09:43:36;;;;;;;26.90;18.10;;;;;;;0.66;100.00;99167.02;435659;1253;139170;-64
2023/11/19 09:53:42;;;;;;;27.60;18.50;;;;;;;0.70;100.00;99158.48;436020;1254;139422;-62
2023/11/19 10:03:50;;;;;;;25.20;16.80;;;;;;;0.71;100.00;99128.11;435795;1253;139252;-62
2023/11/19 10:13:57;;;;;;;24.40;17.80;;;;;;;0.80;100.00;99091.64;435877;1251;139122;-63
2023/11/19 10:24:04;;;;;;;21.40;16.00;;;;;;;1.04;100.00;99073.13;435546;1253;139515;-65
2023/11/19 10:34:27;;;;;;;25.40;17.40;;;;;;;1.35;100.00;99027.92;436936;1251;139070;-64
2023/11/19 10:44:38;;;;;;;21.00;15.70;;;;;;;1.75;100.00;98998.23;436110;1253;139266;-64
2023/11/19 10:54:49;;;;;;;21.50;16.00;;;;;;;2.11;100.00;98992.55;435412;1251;139666;-65
2023/11/19 11:04:57;;;;;;;21.90;15.30;;;;;;;2.33;100.00;98973.05;435935;1249;139669;-64
2023/11/19 11:15:07;;;;;;;19.40;14.70;;;;;;;2.42;100.00;98951.77;436033;1253;139788;-65
2023/11/19 11:25:29;;;;;;;20.50;14.90;;;;;;;2.35;100.00;98931.67;436174;1250;139314;-64
2023/11/19 11:35:44;;;;;;;19.30;15.80;;;;;;;2.20;100.00;98922.75;436357;1251;139667;-64
2023/11/19 11:45:51;;;;;;;20.20;14.30;;;;;;;2.11;100.00;98914.00;436047;1251;139221;-65
2023/11/19 11:56:03;;;;;;;20.70;14.80;;;;;;;1.92;100.00;98898.34;436935;1253;139059;-69
2023/11/19 12:06:12;;;;;;;26.10;18.10;;;;;;;1.59;100.00;98893.55;437043;1254;140595;-65
2023/11/19 12:16:18;;;;;;;25.80;16.20;;;;;;;1.25;100.00;98890.67;436241;1254;139643;-65
2023/11/19 12:26:41;;;;;;;24.80;17.60;;;;;;;0.91;100.00;98876.71;438026;1253;139604;-66
2023/11/19 12:36:47;;;;;;;26.10;18.90;;;;;;;0.60;100.00;98862.30;436120;1251;139492;-65
2023/11/19 12:47:06;;;;;;;24.10;17.30;;;;;;;0.30;100.00;98861.23;435499;1253;139371;-64
2023/11/19 12:57:12;;;;;;;23.40;17.00;;;;;;;0.03;100.00;98849.06;436022;1254;139227;-65
2023/11/19 13:07:23;;;;;;;25.30;20.20;;;;;;;-0.17;100.00;98805.66;435614;1253;141019;-64
2023/11/19 13:17:29;;;;;;;22.50;17.30;;;;;;;-0.28;100.00;98766.45;437239;1251;140042;-65
2023/11/19 13:27:35;;;;;;;22.80;17.80;;;;;;;-0.32;100.00;98767.42;435693;1250;139900;-63
2023/11/19 13:37:42;;;;;;;22.70;18.30;;;;;;;-0.34;100.00;98750.63;436114;1251;139372;-63
2023/11/19 13:47:48;;;;;;;23.50;16.50;;;;;;;-0.39;100.00;98720.36;435628;1250;140364;-64
2023/11/19 13:57:55;;;;;;;24.30;18.80;;;;;;;-0.41;100.00;98727.14;435936;1251;139494;-64
2023/11/19 14:08:01;;;;;;;23.00;16.70;;;;;;;-0.44;100.00;98717.41;435726;1251;140039;-64
2023/11/19 14:18:13;;;;;;;20.20;15.10;;;;;;;-0.43;100.00;98699.14;435785;1251;140495;-64
2023/11/19 14:28:19;;;;;;;18.10;14.70;;;;;;;-0.40;100.00;98691.68;435983;1253;140057;-65
2023/11/19 14:38:26;;;;;;;17.60;13.70;;;;;;;-0.35;100.00;98680.52;435827;1251;139242;-64
2023/11/19 14:48:32;;;;;;;21.40;16.20;;;;;;;-0.32;100.00;98663.02;436750;1250;140735;-64
2023/11/19 14:58:39;;;;;;;19.80;15.30;;;;;;;-0.31;100.00;98652.33;437689;1249;140080;-64
2023/11/19 15:08:44;;;;;;;;;;;;;;;-0.31;100.00;98657.48;436021;1251;139233;-63
2023/11/19 15:18:50;;;;;;;22.10;17.90;;;;;;;-0.30;100.00;98646.81;435871;1250;125554;-65
2023/11/19 15:28:58;;;;;;;19.20;15.50;;;;;;;-0.29;100.00;98642.98;437855;1249;139750;-64
2023/11/19 15:39:05;;;;;;;21.20;16.70;;;;;;;-0.26;100.00;98650.09;435954;1254;139638;-64
2023/11/19 15:49:11;;;;;;;22.30;17.80;;;;;;;-0.24;100.00;98637.11;438871;1251;139367;-64
2023/11/19 15:59:17;;;;;;;19.00;14.60;;;;;;;-0.21;100.00;98618.45;435718;1251;139268;-64
2023/11/19 16:09:24;;;;;;;22.40;17.50;;;;;;;-0.20;100.00;98604.81;435931;1249;140150;-64
2023/11/19 16:19:30;;;;;;;22.70;17.60;;;;;;;-0.18;100.00;98604.56;435971;1251;141802;-66
2023/11/19 16:29:36;;;;;;;20.30;17.20;;;;;;;-0.14;100.00;98593.96;435828;1251;139343;-63
2023/11/19 16:39:43;;;;;;;20.70;15.30;;;;;;;-0.10;100.00;98581.41;436991;1253;139324;-64
2023/11/19 16:49:50;;;;;;;19.40;14.70;;;;;;;-0.06;100.00;98580.75;436003;1250;141117;-64
2023/11/19 16:59:56;;;;;;;19.40;14.40;;;;;;;-0.01;100.00;98581.27;435870;1253;139778;-63
2023/11/19 17:10:02;;;;;;;23.70;18.60;;;;;;;0.04;100.00;98575.59;435836;1253;139527;-63
2023/11/19 17:20:08;;;;;;;;;;;;;;;0.07;100.00;98566.86;446222;1251;139642;-63
2023/11/19 17:30:16;;;;;;;31.50;21.70;;;;;;;0.11;100.00;98562.05;437411;1250;125356;-63
2023/11/19 17:40:23;;;;;;;23.40;20.80;;;;;;;0.16;100.00;98546.40;435680;1251;139584;-63
2023/11/19 17:50:29;;;;;;;26.50;19.50;;;;;;;0.20;100.00;98541.77;435506;1253;139413;-64
2023/11/19 18:00:36;;;;;;;23.50;21.00;;;;;;;0.25;100.00;98516.07;435503;1253;139107;-65
2023/11/19 18:10:42;;;;;;;29.80;23.20;;;;;;;0.31;100.00;98509.67;436473;1250;140052;-64
2023/11/19 18:20:48;;;;;;;27.30;20.70;;;;;;;0.39;100.00;98513.64;436184;1253;139981;-64
2023/11/19 18:30:54;;;;;;;32.80;24.50;;;;;;;0.48;100.00;98502.64;436201;1250;140179;-64
2023/11/19 18:41:01;;;;;;;25.90;20.00;;;;;;;0.58;100.00;98506.02;436054;1251;139114;-64
2023/11/19 18:51:07;;;;;;;26.80;21.40;;;;;;;0.69;100.00;98508.48;436226;1253;139068;-64
2023/11/19 19:01:15;;;;;;;25.90;18.90;;;;;;;0.82;100.00;98495.90;436212;1254;139317;-65
2023/11/19 19:11:22;;;;;;;27.60;20.20;;;;;;;0.92;100.00;98493.77;436504;1253;140322;-63
2023/11/19 19:21:27;;;;;;;;;;;;;;;1.06;100.00;98479.23;435771;1252;140307;-64
2023/11/19 19:31:33;;;;;;;37.30;26.50;;;;;;;1.19;100.00;98476.08;436049;1251;125291;-64
2023/11/19 19:41:39;;;;;;;;;;;;;;;1.32;100.00;98464.16;437283;1253;139398;-65
2023/11/19 19:51:45;;;;;;;32.70;26.30;;;;;;;1.42;100.00;98464.91;436035;1253;125355;-64
2023/11/19 20:01:51;;;;;;;34.70;27.40;;;;;;;1.54;100.00;98459.23;435888;1251;139961;-64
2023/11/19 20:11:58;;;;;;;36.10;26.90;;;;;;;1.66;100.00;98458.32;436151;1251;139294;-64
2023/11/19 20:22:05;;;;;;;31.20;24.70;;;;;;;1.77;100.00;98458.16;435847;1251;139275;-67
2023/11/19 20:32:11;;;;;;;56.60;38.10;;;;;;;1.90;100.00;98455.35;436666;1250;139031;-64
2023/11/19 20:42:16;;;;;;;;;;;;;;;2.04;100.00;98449.01;436027;1253;140204;-63
2023/11/19 20:52:22;;;;;;;43.50;31.20;;;;;;;2.24;100.00;98445.80;438099;1250;126608;-71
2023/11/19 21:02:28;;;;;;;31.30;22.70;;;;;;;2.48;100.00;98448.27;439717;1253;140632;-73
2023/11/19 21:12:35;;;;;;;23.90;16.60;;;;;;;2.80;100.00;98440.82;439258;1253;140852;-70
2023/11/19 21:22:42;;;;;;;22.40;13.20;;;;;;;3.15;100.00;98444.58;436956;1253;139495;-65
2023/11/19 21:32:49;;;;;;;18.60;10.80;;;;;;;3.43;100.00;98444.00;436007;1253;139036;-65
2023/11/19 21:42:56;;;;;;;14.40;9.60;;;;;;;3.79;100.00;98441.07;435868;1250;139456;-66
2023/11/19 21:53:03;;;;;;;18.00;9.70;;;;;;;4.24;100.00;98441.73;436399;1253;139060;-67
2023/11/19 22:03:10;;;;;;;15.80;9.10;;;;;;;4.55;100.00;98441.20;436226;1250;138898;-68
2023/11/19 22:13:16;;;;;;;13.90;8.50;;;;;;;4.83;100.00;98439.73;435712;1253;139501;-67
2023/11/19 22:23:22;;;;;;;16.10;7.90;;;;;;;5.09;100.00;98434.25;436027;1251;138932;-68
2023/11/19 22:33:29;;;;;;;11.90;7.70;;;;;;;5.28;100.00;98438.28;436686;1250;139057;-67
2023/11/19 22:43:36;;;;;;;14.50;7.30;;;;;;;5.42;100.00;98436.57;436171;1250;139437;-68
2023/11/19 22:53:43;;;;;;;11.50;6.90;;;;;;;5.53;100.00;98439.04;436599;1250;139344;-66
2023/11/19 23:03:49;;;;;;;15.10;6.80;;;;;;;5.62;100.00;98439.74;436306;1254;138861;-70
2023/11/19 23:13:55;;;;;;;14.70;7.80;;;;;;;5.67;100.00;98441.17;436457;1253;138807;-69
2023/11/19 23:24:02;;;;;;;14.80;7.70;;;;;;;5.69;100.00;98447.31;436052;1254;139014;-69
2023/11/19 23:34:07;;;;;;;;;;;;;;;5.70;100.00;98451.38;436660;1254;140258;-68
2023/11/19 23:44:13;;;;;;;11.10;6.30;;;;;;;5.70;100.00;98446.49;436045;1253;125730;-69
2023/11/19 23:54:20;;;;;;;10.80;6.10;;;;;;;5.69;100.00;98442.60;435934;1250;150380;-68
